sensor_id;sensor_type;location;lat;lon;timestamp;temperature;humidity
14172;DHT22;7165;52.388;4.928;2023-01-01T00:01:08;14.80;99.90
14172;DHT22;7165;52.388;4.928;2023-01-01T00:03:36;14.80;99.90
14172;DHT22;7165;52.388;4.928;2023-01-01T00:06:06;14.80;99.90
14172;DHT22;7165;52.388;4.928;2023-01-01T00:08:34;14.80;99.90
14172;DHT22;7165;52.388;4.928;2023-01-01T00:11:01;14.80;99.90
14172;DHT22;7165;52.388;4.928;2023-01-01T00:13:27;14.80;99.90
14172;DHT22;7165;52.388;4.928;2023-01-01T00:15:54;14.80;99.90
14172;DHT22;7165;52.388;4.928;2023-01-01T00:18:21;14.80;99.90
14172;DHT22;7165;52.388;4.928;2023-01-01T00:20:49;14.70;99.90
14172;DHT22;7165;52.388;4.928;2023-01-01T00:23:16;14.70;99.90
14172;DHT22;7165;52.388;4.928;2023-01-01T00:25:42;14.70;99.90
14172;DHT22;7165;52.388;4.928;2023-01-01T00:28:09;14.70;99.90
14172;DHT22;7165;52.388;4.928;2023-01-01T00:30:38;14.70;99.90
14172;DHT22;7165;52.388;4.928;2023-01-01T00:33:06;14.70;99.90
14172;DHT22;7165;52.388;4.928;2023-01-01T00:35:32;14.70;99.90
14172;DHT22;7165;52.388;4.928;2023-01-01T00:38:00;14.70;99.90
14172;DHT22;7165;52.388;4.928;2023-01-01T00:40:27;14.70;99.90
14172;DHT22;7165;52.388;4.928;2023-01-01T00:42:54;14.70;99.90
14172;DHT22;7165;52.388;4.928;2023-01-01T00:45:21;14.70;99.90
14172;DHT22;7165;52.388;4.928;2023-01-01T00:47:48;14.70;99.90
14172;DHT22;7165;52.388;4.928;2023-01-01T00:50:14;14.70;99.90
14172;DHT22;7165;52.388;4.928;2023-01-01T00:52:41;14.70;99.90
14172;DHT22;7165;52.388;4.928;2023-01-01T00:55:10;14.70;99.90
14172;DHT22;7165;52.388;4.928;2023-01-01T00:57:37;14.70;99.90
14172;DHT22;7165;52.388;4.928;2023-01-01T01:00:04;14.70;99.90
14172;DHT22;7165;52.388;4.928;2023-01-01T01:02:31;14.70;99.90
14172;DHT22;7165;52.388;4.928;2023-01-01T01:04:58;14.60;99.90
14172;DHT22;7165;52.388;4.928;2023-01-01T01:07:25;14.60;99.90
14172;DHT22;7165;52.388;4.928;2023-01-01T01:09:52;14.60;99.90
14172;DHT22;7165;52.388;4.928;2023-01-01T01:12:20;14.50;99.90
14172;DHT22;7165;52.388;4.928;2023-01-01T01:14:47;14.50;99.90
14172;DHT22;7165;52.388;4.928;2023-01-01T01:17:13;14.50;99.90
14172;DHT22;7165;52.388;4.928;2023-01-01T01:19:40;14.50;99.90
14172;DHT22;7165;52.388;4.928;2023-01-01T01:22:07;14.40;99.90
14172;DHT22;7165;52.388;4.928;2023-01-01T01:24:34;14.40;99.90
14172;DHT22;7165;52.388;4.928;2023-01-01T01:27:00;14.40;99.90
14172;DHT22;7165;52.388;4.928;2023-01-01T01:29:28;14.40;99.90
14172;DHT22;7165;52.388;4.928;2023-01-01T01:31:55;14.40;99.90
14172;DHT22;7165;52.388;4.928;2023-01-01T01:34:22;14.40;99.90
14172;DHT22;7165;52.388;4.928;2023-01-01T01:36:49;14.40;99.90
14172;DHT22;7165;52.388;4.928;2023-01-01T01:39:17;14.40;99.90
14172;DHT22;7165;52.388;4.928;2023-01-01T01:41:44;14.50;99.90
14172;DHT22;7165;52.388;4.928;2023-01-01T01:47:13;14.50;99.90
14172;DHT22;7165;52.388;4.928;2023-01-01T01:49:41;14.50;99.90
14172;DHT22;7165;52.388;4.928;2023-01-01T01:52:09;14.50;99.90
14172;DHT22;7165;52.388;4.928;2023-01-01T01:54:36;14.50;99.90
14172;DHT22;7165;52.388;4.928;2023-01-01T01:57:06;14.50;99.90
14172;DHT22;7165;52.388;4.928;2023-01-01T01:59:36;14.60;99.90
14172;DHT22;7165;52.388;4.928;2023-01-01T02:02:06;14.60;99.90
14172;DHT22;7165;52.388;4.928;2023-01-01T02:04:36;14.60;99.90
14172;DHT22;7165;52.388;4.928;2023-01-01T02:07:02;14.60;99.90
14172;DHT22;7165;52.388;4.928;2023-01-01T02:09:29;14.60;99.90
14172;DHT22;7165;52.388;4.928;2023-01-01T02:11:57;14.70;99.90
14172;DHT22;7165;52.388;4.928;2023-01-01T02:14:24;14.70;99.90
14172;DHT22;7165;52.388;4.928;2023-01-01T02:16:55;14.80;99.90
14172;DHT22;7165;52.388;4.928;2023-01-01T02:19:31;14.80;99.90
14172;DHT22;7165;52.388;4.928;2023-01-01T02:22:08;14.80;99.90
14172;DHT22;7165;52.388;4.928;2023-01-01T02:24:48;14.90;99.90
14172;DHT22;7165;52.388;4.928;2023-01-01T02:27:29;14.90;99.90
14172;DHT22;7165;52.388;4.928;2023-01-01T02:30:03;14.80;99.90
14172;DHT22;7165;52.388;4.928;2023-01-01T02:32:36;14.80;99.90
14172;DHT22;7165;52.388;4.928;2023-01-01T02:35:07;14.80;99.90
14172;DHT22;7165;52.388;4.928;2023-01-01T02:37:53;14.90;99.90
14172;DHT22;7165;52.388;4.928;2023-01-01T02:40:23;14.90;99.90
14172;DHT22;7165;52.388;4.928;2023-01-01T02:42:51;14.90;99.90
14172;DHT22;7165;52.388;4.928;2023-01-01T02:45:21;14.90;99.90
14172;DHT22;7165;52.388;4.928;2023-01-01T02:47:47;14.90;99.90
14172;DHT22;7165;52.388;4.928;2023-01-01T02:50:17;14.90;99.90
14172;DHT22;7165;52.388;4.928;2023-01-01T02:52:54;14.90;99.90
14172;DHT22;7165;52.388;4.928;2023-01-01T02:55:28;14.90;99.90
14172;DHT22;7165;52.388;4.928;2023-01-01T02:58:03;14.90;99.90
14172;DHT22;7165;52.388;4.928;2023-01-01T03:00:58;14.90;99.90
14172;DHT22;7165;52.388;4.928;2023-01-01T03:03:32;14.90;99.90
14172;DHT22;7165;52.388;4.928;2023-01-01T03:06:07;14.90;99.90
14172;DHT22;7165;52.388;4.928;2023-01-01T03:08:57;14.90;99.90
14172;DHT22;7165;52.388;4.928;2023-01-01T03:11:33;14.80;99.90
14172;DHT22;7165;52.388;4.928;2023-01-01T03:14:07;14.80;99.90
14172;DHT22;7165;52.388;4.928;2023-01-01T03:16:39;14.80;99.90
14172;DHT22;7165;52.388;4.928;2023-01-01T03:19:10;14.70;99.90
14172;DHT22;7165;52.388;4.928;2023-01-01T03:21:40;14.70;99.90
14172;DHT22;7165;52.388;4.928;2023-01-01T03:24:11;14.70;99.90
14172;DHT22;7165;52.388;4.928;2023-01-01T03:26:39;14.60;99.90
14172;DHT22;7165;52.388;4.928;2023-01-01T03:29:08;14.50;99.90
14172;DHT22;7165;52.388;4.928;2023-01-01T03:31:42;14.40;99.90
14172;DHT22;7165;52.388;4.928;2023-01-01T03:34:12;14.30;99.90
14172;DHT22;7165;52.388;4.928;2023-01-01T03:36:43;14.20;99.90
14172;DHT22;7165;52.388;4.928;2023-01-01T03:39:14;14.20;99.90
14172;DHT22;7165;52.388;4.928;2023-01-01T03:41:46;14.10;99.90
14172;DHT22;7165;52.388;4.928;2023-01-01T03:44:20;14.00;99.90
14172;DHT22;7165;52.388;4.928;2023-01-01T03:46:50;14.00;99.90
14172;DHT22;7165;52.388;4.928;2023-01-01T03:49:17;14.10;99.90
14172;DHT22;7165;52.388;4.928;2023-01-01T03:51:59;14.00;99.90
14172;DHT22;7165;52.388;4.928;2023-01-01T03:54:37;14.10;99.90
14172;DHT22;7165;52.388;4.928;2023-01-01T03:57:12;14.00;99.90
14172;DHT22;7165;52.388;4.928;2023-01-01T03:59:50;14.10;99.90
14172;DHT22;7165;52.388;4.928;2023-01-01T04:02:24;14.10;99.90
14172;DHT22;7165;52.388;4.928;2023-01-01T04:04:58;14.10;99.90
14172;DHT22;7165;52.388;4.928;2023-01-01T04:07:25;14.10;99.90
14172;DHT22;7165;52.388;4.928;2023-01-01T04:09:55;14.10;99.90
14172;DHT22;7165;52.388;4.928;2023-01-01T04:12:25;14.10;99.90
14172;DHT22;7165;52.388;4.928;2023-01-01T04:14:52;14.00;99.90
14172;DHT22;7165;52.388;4.928;2023-01-01T04:17:20;14.00;99.90
14172;DHT22;7165;52.388;4.928;2023-01-01T04:19:46;14.00;99.90
14172;DHT22;7165;52.388;4.928;2023-01-01T04:22:13;13.90;99.90
14172;DHT22;7165;52.388;4.928;2023-01-01T04:24:39;13.90;99.90
14172;DHT22;7165;52.388;4.928;2023-01-01T04:27:09;13.80;99.90
14172;DHT22;7165;52.388;4.928;2023-01-01T04:29:36;13.80;99.90
14172;DHT22;7165;52.388;4.928;2023-01-01T04:32:06;13.80;99.90
14172;DHT22;7165;52.388;4.928;2023-01-01T04:34:34;13.70;99.90
14172;DHT22;7165;52.388;4.928;2023-01-01T04:37:00;13.60;99.90
14172;DHT22;7165;52.388;4.928;2023-01-01T04:39:27;13.60;99.90
14172;DHT22;7165;52.388;4.928;2023-01-01T04:41:54;13.50;99.90
14172;DHT22;7165;52.388;4.928;2023-01-01T04:44:20;13.50;99.90
14172;DHT22;7165;52.388;4.928;2023-01-01T04:46:47;13.50;99.90
14172;DHT22;7165;52.388;4.928;2023-01-01T04:49:14;13.40;99.90
14172;DHT22;7165;52.388;4.928;2023-01-01T04:51:42;13.40;99.90
14172;DHT22;7165;52.388;4.928;2023-01-01T04:54:08;13.40;99.90
14172;DHT22;7165;52.388;4.928;2023-01-01T04:56:35;13.30;99.90
14172;DHT22;7165;52.388;4.928;2023-01-01T04:59:02;13.30;99.90
14172;DHT22;7165;52.388;4.928;2023-01-01T05:01:29;13.20;99.90
14172;DHT22;7165;52.388;4.928;2023-01-01T05:03:59;13.20;99.90
14172;DHT22;7165;52.388;4.928;2023-01-01T05:06:26;13.20;99.90
14172;DHT22;7165;52.388;4.928;2023-01-01T05:08:55;13.20;99.90
14172;DHT22;7165;52.388;4.928;2023-01-01T05:11:23;13.20;99.90
14172;DHT22;7165;52.388;4.928;2023-01-01T05:13:52;13.10;99.90
14172;DHT22;7165;52.388;4.928;2023-01-01T05:16:21;13.10;99.90
14172;DHT22;7165;52.388;4.928;2023-01-01T05:18:48;13.10;99.90
14172;DHT22;7165;52.388;4.928;2023-01-01T05:21:16;13.00;99.90
14172;DHT22;7165;52.388;4.928;2023-01-01T05:23:43;13.00;99.90
14172;DHT22;7165;52.388;4.928;2023-01-01T05:26:14;13.00;99.90
14172;DHT22;7165;52.388;4.928;2023-01-01T05:28:41;13.00;99.90
14172;DHT22;7165;52.388;4.928;2023-01-01T05:31:10;12.90;99.90
14172;DHT22;7165;52.388;4.928;2023-01-01T05:33:37;12.90;99.90
14172;DHT22;7165;52.388;4.928;2023-01-01T05:36:06;12.90;99.90
14172;DHT22;7165;52.388;4.928;2023-01-01T05:38:33;12.90;99.90
14172;DHT22;7165;52.388;4.928;2023-01-01T05:41:04;12.90;99.90
14172;DHT22;7165;52.388;4.928;2023-01-01T05:43:32;12.90;99.90
14172;DHT22;7165;52.388;4.928;2023-01-01T05:46:00;12.90;99.90
14172;DHT22;7165;52.388;4.928;2023-01-01T05:48:28;12.90;99.90
14172;DHT22;7165;52.388;4.928;2023-01-01T05:51:01;12.90;99.90
14172;DHT22;7165;52.388;4.928;2023-01-01T05:53:28;12.90;99.90
14172;DHT22;7165;52.388;4.928;2023-01-01T05:55:55;12.90;99.90
14172;DHT22;7165;52.388;4.928;2023-01-01T05:58:22;12.90;99.90
14172;DHT22;7165;52.388;4.928;2023-01-01T06:00:50;12.90;99.90
14172;DHT22;7165;52.388;4.928;2023-01-01T06:03:17;12.90;99.90
14172;DHT22;7165;52.388;4.928;2023-01-01T06:05:44;12.90;99.90
14172;DHT22;7165;52.388;4.928;2023-01-01T06:08:11;12.90;99.90
14172;DHT22;7165;52.388;4.928;2023-01-01T06:10:38;12.90;99.90
14172;DHT22;7165;52.388;4.928;2023-01-01T06:13:05;12.80;99.90
14172;DHT22;7165;52.388;4.928;2023-01-01T06:15:32;12.90;99.90
14172;DHT22;7165;52.388;4.928;2023-01-01T06:18:00;12.90;99.90
14172;DHT22;7165;52.388;4.928;2023-01-01T06:20:26;12.80;99.90
14172;DHT22;7165;52.388;4.928;2023-01-01T06:22:53;12.80;99.90
14172;DHT22;7165;52.388;4.928;2023-01-01T06:25:20;12.80;99.90
14172;DHT22;7165;52.388;4.928;2023-01-01T06:27:46;12.80;99.90
14172;DHT22;7165;52.388;4.928;2023-01-01T06:30:13;12.80;99.90
14172;DHT22;7165;52.388;4.928;2023-01-01T06:32:40;12.80;99.90
14172;DHT22;7165;52.388;4.928;2023-01-01T06:35:08;12.80;99.90
14172;DHT22;7165;52.388;4.928;2023-01-01T06:37:35;12.80;99.90
14172;DHT22;7165;52.388;4.928;2023-01-01T06:40:02;12.80;99.90
14172;DHT22;7165;52.388;4.928;2023-01-01T06:42:29;12.80;99.90
14172;DHT22;7165;52.388;4.928;2023-01-01T06:44:56;12.80;99.90
14172;DHT22;7165;52.388;4.928;2023-01-01T06:47:22;12.70;99.90
14172;DHT22;7165;52.388;4.928;2023-01-01T06:49:49;12.70;99.90
14172;DHT22;7165;52.388;4.928;2023-01-01T06:52:17;12.70;99.90
14172;DHT22;7165;52.388;4.928;2023-01-01T06:54:44;12.70;99.90
14172;DHT22;7165;52.388;4.928;2023-01-01T06:57:10;12.70;99.90
14172;DHT22;7165;52.388;4.928;2023-01-01T06:59:37;12.70;99.90
14172;DHT22;7165;52.388;4.928;2023-01-01T07:02:04;12.60;99.90
14172;DHT22;7165;52.388;4.928;2023-01-01T07:04:30;12.60;99.90
14172;DHT22;7165;52.388;4.928;2023-01-01T07:06:57;12.50;99.90
14172;DHT22;7165;52.388;4.928;2023-01-01T07:09:27;12.50;99.90
14172;DHT22;7165;52.388;4.928;2023-01-01T07:11:53;12.50;99.90
14172;DHT22;7165;52.388;4.928;2023-01-01T07:14:20;12.50;99.90
14172;DHT22;7165;52.388;4.928;2023-01-01T07:16:47;12.50;99.90
14172;DHT22;7165;52.388;4.928;2023-01-01T07:19:13;12.50;99.90
14172;DHT22;7165;52.388;4.928;2023-01-01T07:21:42;12.50;99.90
14172;DHT22;7165;52.388;4.928;2023-01-01T07:24:11;12.50;99.90
14172;DHT22;7165;52.388;4.928;2023-01-01T07:26:40;12.50;99.90
14172;DHT22;7165;52.388;4.928;2023-01-01T07:29:07;12.40;99.90
14172;DHT22;7165;52.388;4.928;2023-01-01T07:31:34;12.40;99.90
14172;DHT22;7165;52.388;4.928;2023-01-01T07:34:01;12.40;99.90
14172;DHT22;7165;52.388;4.928;2023-01-01T07:36:28;12.40;99.90
14172;DHT22;7165;52.388;4.928;2023-01-01T07:38:55;12.40;99.90
14172;DHT22;7165;52.388;4.928;2023-01-01T07:41:21;12.40;99.90
14172;DHT22;7165;52.388;4.928;2023-01-01T07:43:49;12.40;99.90
14172;DHT22;7165;52.388;4.928;2023-01-01T07:46:16;12.40;99.90
14172;DHT22;7165;52.388;4.928;2023-01-01T07:48:44;12.30;99.90
14172;DHT22;7165;52.388;4.928;2023-01-01T07:51:10;12.40;99.90
14172;DHT22;7165;52.388;4.928;2023-01-01T07:53:37;12.30;99.90
14172;DHT22;7165;52.388;4.928;2023-01-01T07:56:05;12.30;99.90
14172;DHT22;7165;52.388;4.928;2023-01-01T07:58:32;12.30;99.90
14172;DHT22;7165;52.388;4.928;2023-01-01T08:01:00;12.30;99.90
14172;DHT22;7165;52.388;4.928;2023-01-01T08:03:26;12.30;99.90
14172;DHT22;7165;52.388;4.928;2023-01-01T08:05:53;12.30;99.90
14172;DHT22;7165;52.388;4.928;2023-01-01T08:08:20;12.20;99.90
14172;DHT22;7165;52.388;4.928;2023-01-01T08:10:46;12.20;99.90
14172;DHT22;7165;52.388;4.928;2023-01-01T08:13:13;12.20;99.90
14172;DHT22;7165;52.388;4.928;2023-01-01T08:15:40;12.20;99.90
14172;DHT22;7165;52.388;4.928;2023-01-01T08:18:08;12.20;99.90
14172;DHT22;7165;52.388;4.928;2023-01-01T08:20:35;12.20;99.90
14172;DHT22;7165;52.388;4.928;2023-01-01T08:23:02;12.20;99.90
14172;DHT22;7165;52.388;4.928;2023-01-01T08:25:28;12.20;99.90
14172;DHT22;7165;52.388;4.928;2023-01-01T08:27:55;12.20;99.90
14172;DHT22;7165;52.388;4.928;2023-01-01T08:30:22;12.20;99.90
14172;DHT22;7165;52.388;4.928;2023-01-01T08:32:48;12.20;99.90
14172;DHT22;7165;52.388;4.928;2023-01-01T08:35:16;12.20;99.90
14172;DHT22;7165;52.388;4.928;2023-01-01T08:37:43;12.20;99.90
14172;DHT22;7165;52.388;4.928;2023-01-01T08:40:11;12.20;99.90
14172;DHT22;7165;52.388;4.928;2023-01-01T08:42:38;12.20;99.90
14172;DHT22;7165;52.388;4.928;2023-01-01T08:45:06;12.30;99.90
14172;DHT22;7165;52.388;4.928;2023-01-01T08:47:33;12.30;99.90
14172;DHT22;7165;52.388;4.928;2023-01-01T08:50:00;12.30;99.90
14172;DHT22;7165;52.388;4.928;2023-01-01T08:52:28;12.30;99.90
14172;DHT22;7165;52.388;4.928;2023-01-01T08:54:54;12.30;99.90
14172;DHT22;7165;52.388;4.928;2023-01-01T08:57:21;12.30;99.90
14172;DHT22;7165;52.388;4.928;2023-01-01T08:59:48;12.40;99.90
14172;DHT22;7165;52.388;4.928;2023-01-01T09:02:14;12.30;99.90
14172;DHT22;7165;52.388;4.928;2023-01-01T09:04:41;12.40;99.90
14172;DHT22;7165;52.388;4.928;2023-01-01T09:07:08;12.40;99.90
14172;DHT22;7165;52.388;4.928;2023-01-01T09:09:36;12.50;99.90
14172;DHT22;7165;52.388;4.928;2023-01-01T09:12:03;12.50;99.90
14172;DHT22;7165;52.388;4.928;2023-01-01T09:14:31;12.50;99.90
14172;DHT22;7165;52.388;4.928;2023-01-01T09:16:58;12.50;99.90
14172;DHT22;7165;52.388;4.928;2023-01-01T09:19:25;12.50;99.90
14172;DHT22;7165;52.388;4.928;2023-01-01T09:21:52;12.50;99.90
14172;DHT22;7165;52.388;4.928;2023-01-01T09:24:18;12.50;99.90
14172;DHT22;7165;52.388;4.928;2023-01-01T09:26:47;12.50;99.90
14172;DHT22;7165;52.388;4.928;2023-01-01T09:29:14;12.60;99.90
14172;DHT22;7165;52.388;4.928;2023-01-01T09:31:43;12.60;99.90
14172;DHT22;7165;52.388;4.928;2023-01-01T09:34:10;12.70;99.90
14172;DHT22;7165;52.388;4.928;2023-01-01T09:36:37;12.70;99.90
14172;DHT22;7165;52.388;4.928;2023-01-01T09:39:04;12.70;99.90
14172;DHT22;7165;52.388;4.928;2023-01-01T09:41:56;12.70;99.90
14172;DHT22;7165;52.388;4.928;2023-01-01T09:44:50;12.70;99.90
14172;DHT22;7165;52.388;4.928;2023-01-01T09:47:22;12.60;99.90
14172;DHT22;7165;52.388;4.928;2023-01-01T09:49:51;12.60;99.90
14172;DHT22;7165;52.388;4.928;2023-01-01T09:52:20;12.60;99.90
14172;DHT22;7165;52.388;4.928;2023-01-01T09:54:50;12.60;99.90
14172;DHT22;7165;52.388;4.928;2023-01-01T09:57:25;12.60;99.90
14172;DHT22;7165;52.388;4.928;2023-01-01T09:59:54;12.70;99.90
14172;DHT22;7165;52.388;4.928;2023-01-01T10:02:31;12.70;99.90
14172;DHT22;7165;52.388;4.928;2023-01-01T10:05:07;12.70;99.90
14172;DHT22;7165;52.388;4.928;2023-01-01T10:07:44;12.70;99.90
14172;DHT22;7165;52.388;4.928;2023-01-01T10:10:21;12.70;99.90
14172;DHT22;7165;52.388;4.928;2023-01-01T10:12:59;12.80;99.90
14172;DHT22;7165;52.388;4.928;2023-01-01T10:15:32;12.80;99.90
14172;DHT22;7165;52.388;4.928;2023-01-01T10:18:02;12.80;99.90
14172;DHT22;7165;52.388;4.928;2023-01-01T10:20:34;12.80;99.90
14172;DHT22;7165;52.388;4.928;2023-01-01T10:23:09;12.80;99.90
14172;DHT22;7165;52.388;4.928;2023-01-01T10:25:39;12.80;99.90
14172;DHT22;7165;52.388;4.928;2023-01-01T10:28:12;12.70;99.90
14172;DHT22;7165;52.388;4.928;2023-01-01T10:30:41;12.70;99.90
14172;DHT22;7165;52.388;4.928;2023-01-01T10:33:11;12.70;99.90
14172;DHT22;7165;52.388;4.928;2023-01-01T10:35:41;12.80;99.90
14172;DHT22;7165;52.388;4.928;2023-01-01T10:38:19;12.70;99.90
14172;DHT22;7165;52.388;4.928;2023-01-01T10:40:47;12.70;99.90
14172;DHT22;7165;52.388;4.928;2023-01-01T10:43:15;12.80;99.90
14172;DHT22;7165;52.388;4.928;2023-01-01T10:45:43;12.80;99.90
14172;DHT22;7165;52.388;4.928;2023-01-01T10:48:15;12.80;99.90
14172;DHT22;7165;52.388;4.928;2023-01-01T10:50:48;12.90;99.90
14172;DHT22;7165;52.388;4.928;2023-01-01T10:53:26;12.90;99.90
14172;DHT22;7165;52.388;4.928;2023-01-01T10:56:03;12.90;99.90
14172;DHT22;7165;52.388;4.928;2023-01-01T10:58:37;12.90;99.90
14172;DHT22;7165;52.388;4.928;2023-01-01T11:01:05;12.90;99.90
14172;DHT22;7165;52.388;4.928;2023-01-01T11:03:33;13.00;99.90
14172;DHT22;7165;52.388;4.928;2023-01-01T11:06:18;13.00;99.90
14172;DHT22;7165;52.388;4.928;2023-01-01T11:08:48;13.00;99.90
14172;DHT22;7165;52.388;4.928;2023-01-01T11:11:21;13.10;99.90
14172;DHT22;7165;52.388;4.928;2023-01-01T11:13:53;13.10;99.90
14172;DHT22;7165;52.388;4.928;2023-01-01T11:16:21;13.10;99.90
14172;DHT22;7165;52.388;4.928;2023-01-01T11:18:48;13.20;99.90
14172;DHT22;7165;52.388;4.928;2023-01-01T11:21:20;13.20;99.90
14172;DHT22;7165;52.388;4.928;2023-01-01T11:23:48;13.30;99.90
14172;DHT22;7165;52.388;4.928;2023-01-01T11:26:21;13.40;99.90
14172;DHT22;7165;52.388;4.928;2023-01-01T11:29:15;13.50;99.90
14172;DHT22;7165;52.388;4.928;2023-01-01T11:31:45;13.60;99.90
14172;DHT22;7165;52.388;4.928;2023-01-01T11:34:24;13.60;99.90
14172;DHT22;7165;52.388;4.928;2023-01-01T11:37:08;13.70;99.90
14172;DHT22;7165;52.388;4.928;2023-01-01T11:39:36;13.60;99.90
14172;DHT22;7165;52.388;4.928;2023-01-01T11:42:07;13.60;99.90
14172;DHT22;7165;52.388;4.928;2023-01-01T11:44:38;13.60;99.90
14172;DHT22;7165;52.388;4.928;2023-01-01T11:47:07;13.60;99.90
14172;DHT22;7165;52.388;4.928;2023-01-01T11:49:46;13.60;99.90
14172;DHT22;7165;52.388;4.928;2023-01-01T11:52:27;13.60;99.90
14172;DHT22;7165;52.388;4.928;2023-01-01T11:55:01;13.60;99.90
14172;DHT22;7165;52.388;4.928;2023-01-01T11:57:28;13.60;99.90
14172;DHT22;7165;52.388;4.928;2023-01-01T12:00:00;13.50;99.90
14172;DHT22;7165;52.388;4.928;2023-01-01T12:02:33;13.50;99.90
14172;DHT22;7165;52.388;4.928;2023-01-01T12:05:08;13.50;99.90
14172;DHT22;7165;52.388;4.928;2023-01-01T12:07:39;13.50;99.90
14172;DHT22;7165;52.388;4.928;2023-01-01T12:10:14;13.50;99.90
14172;DHT22;7165;52.388;4.928;2023-01-01T12:12:46;13.50;99.90
14172;DHT22;7165;52.388;4.928;2023-01-01T12:15:20;13.50;99.90
14172;DHT22;7165;52.388;4.928;2023-01-01T12:17:54;13.50;99.90
14172;DHT22;7165;52.388;4.928;2023-01-01T12:20:25;13.50;99.90
14172;DHT22;7165;52.388;4.928;2023-01-01T12:22:54;13.50;99.90
14172;DHT22;7165;52.388;4.928;2023-01-01T12:25:21;13.50;99.90
14172;DHT22;7165;52.388;4.928;2023-01-01T12:28:01;13.40;99.90
14172;DHT22;7165;52.388;4.928;2023-01-01T12:30:38;13.40;99.90
14172;DHT22;7165;52.388;4.928;2023-01-01T12:33:35;13.40;99.90
14172;DHT22;7165;52.388;4.928;2023-01-01T12:36:18;13.40;99.90
14172;DHT22;7165;52.388;4.928;2023-01-01T12:39:35;13.40;99.90
14172;DHT22;7165;52.388;4.928;2023-01-01T12:42:13;13.40;99.90
14172;DHT22;7165;52.388;4.928;2023-01-01T12:44:56;13.40;99.90
14172;DHT22;7165;52.388;4.928;2023-01-01T12:47:36;13.40;99.90
14172;DHT22;7165;52.388;4.928;2023-01-01T12:50:12;13.40;99.90
14172;DHT22;7165;52.388;4.928;2023-01-01T12:52:49;13.40;99.90
14172;DHT22;7165;52.388;4.928;2023-01-01T12:55:34;13.30;99.90
14172;DHT22;7165;52.388;4.928;2023-01-01T12:58:04;13.30;99.90
14172;DHT22;7165;52.388;4.928;2023-01-01T13:00:36;13.30;99.90
14172;DHT22;7165;52.388;4.928;2023-01-01T13:03:09;13.20;99.90
14172;DHT22;7165;52.388;4.928;2023-01-01T13:05:39;13.20;99.90
14172;DHT22;7165;52.388;4.928;2023-01-01T13:08:07;13.20;99.90
14172;DHT22;7165;52.388;4.928;2023-01-01T13:10:36;13.20;99.90
14172;DHT22;7165;52.388;4.928;2023-01-01T13:13:04;13.10;99.90
14172;DHT22;7165;52.388;4.928;2023-01-01T13:15:46;13.10;99.90
14172;DHT22;7165;52.388;4.928;2023-01-01T13:18:30;13.10;99.90
14172;DHT22;7165;52.388;4.928;2023-01-01T13:21:04;13.10;99.90
14172;DHT22;7165;52.388;4.928;2023-01-01T13:23:45;13.10;99.90
14172;DHT22;7165;52.388;4.928;2023-01-01T13:26:35;13.10;99.90
14172;DHT22;7165;52.388;4.928;2023-01-01T13:29:24;13.10;99.90
14172;DHT22;7165;52.388;4.928;2023-01-01T13:32:15;13.10;99.90
14172;DHT22;7165;52.388;4.928;2023-01-01T13:35:13;13.10;99.90
14172;DHT22;7165;52.388;4.928;2023-01-01T13:37:47;13.10;99.90
14172;DHT22;7165;52.388;4.928;2023-01-01T13:40:31;13.10;99.90
14172;DHT22;7165;52.388;4.928;2023-01-01T13:43:30;13.10;99.90
14172;DHT22;7165;52.388;4.928;2023-01-01T13:46:00;13.10;99.90
14172;DHT22;7165;52.388;4.928;2023-01-01T13:51:57;13.10;99.90
14172;DHT22;7165;52.388;4.928;2023-01-01T13:57:40;13.10;99.90
14172;DHT22;7165;52.388;4.928;2023-01-01T14:00:17;13.00;99.90
14172;DHT22;7165;52.388;4.928;2023-01-01T14:02:49;13.00;99.90
14172;DHT22;7165;52.388;4.928;2023-01-01T14:05:21;13.00;99.90
14172;DHT22;7165;52.388;4.928;2023-01-01T14:07:52;13.00;99.90
14172;DHT22;7165;52.388;4.928;2023-01-01T14:10:23;13.00;99.90
14172;DHT22;7165;52.388;4.928;2023-01-01T14:12:52;13.00;99.90
14172;DHT22;7165;52.388;4.928;2023-01-01T14:15:24;13.00;99.90
14172;DHT22;7165;52.388;4.928;2023-01-01T14:17:51;13.00;99.90
14172;DHT22;7165;52.388;4.928;2023-01-01T14:20:22;13.00;99.90
14172;DHT22;7165;52.388;4.928;2023-01-01T14:22:51;13.00;99.90
14172;DHT22;7165;52.388;4.928;2023-01-01T14:25:24;13.00;99.90
14172;DHT22;7165;52.388;4.928;2023-01-01T14:27:53;12.90;99.90
14172;DHT22;7165;52.388;4.928;2023-01-01T14:30:20;12.90;99.90
14172;DHT22;7165;52.388;4.928;2023-01-01T14:32:55;12.90;99.90
14172;DHT22;7165;52.388;4.928;2023-01-01T14:35:22;12.90;99.90
14172;DHT22;7165;52.388;4.928;2023-01-01T14:37:52;12.90;99.90
14172;DHT22;7165;52.388;4.928;2023-01-01T14:40:20;12.90;99.90
14172;DHT22;7165;52.388;4.928;2023-01-01T14:42:55;12.90;99.90
14172;DHT22;7165;52.388;4.928;2023-01-01T14:45:22;12.90;99.90
14172;DHT22;7165;52.388;4.928;2023-01-01T14:47:52;12.90;99.90
14172;DHT22;7165;52.388;4.928;2023-01-01T14:50:24;12.80;99.90
14172;DHT22;7165;52.388;4.928;2023-01-01T14:52:56;12.80;99.90
14172;DHT22;7165;52.388;4.928;2023-01-01T14:55:31;12.80;99.90
14172;DHT22;7165;52.388;4.928;2023-01-01T14:57:59;12.70;99.90
14172;DHT22;7165;52.388;4.928;2023-01-01T15:00:28;12.70;99.90
14172;DHT22;7165;52.388;4.928;2023-01-01T15:03:04;12.60;99.90
14172;DHT22;7165;52.388;4.928;2023-01-01T15:05:34;12.70;99.90
14172;DHT22;7165;52.388;4.928;2023-01-01T15:08:04;12.60;99.90
14172;DHT22;7165;52.388;4.928;2023-01-01T15:10:33;12.60;99.90
14172;DHT22;7165;52.388;4.928;2023-01-01T15:13:04;12.60;99.90
14172;DHT22;7165;52.388;4.928;2023-01-01T15:15:40;12.50;99.90
14172;DHT22;7165;52.388;4.928;2023-01-01T15:18:37;12.50;99.90
14172;DHT22;7165;52.388;4.928;2023-01-01T15:21:09;12.50;99.90
14172;DHT22;7165;52.388;4.928;2023-01-01T15:23:38;12.40;99.90
14172;DHT22;7165;52.388;4.928;2023-01-01T15:26:16;12.40;99.90
14172;DHT22;7165;52.388;4.928;2023-01-01T15:28:42;12.40;99.90
14172;DHT22;7165;52.388;4.928;2023-01-01T15:31:10;12.30;99.90
14172;DHT22;7165;52.388;4.928;2023-01-01T15:33:37;12.30;99.90
14172;DHT22;7165;52.388;4.928;2023-01-01T15:36:06;12.20;99.90
14172;DHT22;7165;52.388;4.928;2023-01-01T15:38:34;12.20;99.90
14172;DHT22;7165;52.388;4.928;2023-01-01T15:41:32;12.20;99.90
14172;DHT22;7165;52.388;4.928;2023-01-01T15:44:07;12.20;99.90
14172;DHT22;7165;52.388;4.928;2023-01-01T15:46:33;12.10;99.90
14172;DHT22;7165;52.388;4.928;2023-01-01T15:49:00;12.10;99.90
14172;DHT22;7165;52.388;4.928;2023-01-01T15:51:28;12.10;99.90
14172;DHT22;7165;52.388;4.928;2023-01-01T15:53:56;12.10;99.90
14172;DHT22;7165;52.388;4.928;2023-01-01T15:56:29;12.00;99.90
14172;DHT22;7165;52.388;4.928;2023-01-01T15:58:59;12.00;99.90
14172;DHT22;7165;52.388;4.928;2023-01-01T16:01:28;12.00;99.90
14172;DHT22;7165;52.388;4.928;2023-01-01T16:04:01;12.00;99.90
14172;DHT22;7165;52.388;4.928;2023-01-01T16:06:28;12.10;99.90
14172;DHT22;7165;52.388;4.928;2023-01-01T16:08:55;12.00;99.90
14172;DHT22;7165;52.388;4.928;2023-01-01T16:11:22;12.00;99.90
14172;DHT22;7165;52.388;4.928;2023-01-01T16:13:50;12.00;99.90
14172;DHT22;7165;52.388;4.928;2023-01-01T16:16:24;12.00;99.90